Time;durP1;ratioP1;P1;durP2;ratioP2;P2;SDS_P1;SDS_P2;PMS_P1;PMS_P2;Temp;Humidity;BMP_temperature;BMP_pressure;BME280_temperature;BME280_humidity;BME280_pressure;Samples;Min_cycle;Max_cycle;Signal;HPM_P1;HPM_P2
2022/09/08 00:01:19;;;;;;;6.00;4.05;;;20.20;88.50;;;22.99;53.37;97065.38;5065945;28;20542;-62
2022/09/08 00:03:47;;;;;;;4.60;3.65;;;20.10;90.20;;;22.90;53.62;97065.03;5082500;28;20075;-61
2022/09/08 00:06:17;;;;;;;7.55;3.60;;;20.00;91.90;;;22.84;53.71;97068.75;5066230;28;20068;-61
2022/09/08 00:08:47;;;;;;;4.53;3.45;;;19.90;93.10;;;22.79;53.84;97063.25;5066372;28;20380;-61
2022/09/08 00:11:23;;;;;;;8.95;3.15;;;19.80;95.00;;;22.64;54.77;97044.91;5065320;28;20459;-61
2022/09/08 00:13:51;;;;;;;4.30;3.50;;;19.70;98.70;;;22.59;54.62;97059.22;5048443;28;20056;-61
2022/09/08 00:16:19;;;;;;;4.28;3.45;;;19.70;99.60;;;22.52;55.23;97044.22;5063953;28;20393;-61
2022/09/08 00:18:50;;;;;;;4.15;2.90;;;19.70;99.90;;;22.45;55.14;97033.56;5065370;28;20053;-61
2022/09/08 00:21:25;;;;;;;3.38;2.97;;;19.60;99.90;;;22.19;56.26;97041.31;5065805;28;20052;-61
2022/09/08 00:23:53;;;;;;;6.85;3.15;;;19.40;99.90;;;22.36;55.45;97035.88;5064149;28;20048;-61
2022/09/08 00:26:22;;;;;;;5.18;3.40;;;19.50;99.90;;;22.38;55.30;97047.31;5047536;28;20044;-62
2022/09/08 00:28:49;;;;;;;5.35;3.63;;;19.50;99.90;;;22.27;55.54;97039.28;5064548;28;20231;-62
2022/09/08 00:31:18;;;;;;;5.10;3.38;;;19.40;99.90;;;22.15;56.01;97036.66;5064343;28;20058;-62
2022/09/08 00:33:46;;;;;;;4.53;3.30;;;19.30;99.90;;;22.16;56.07;97055.41;5049219;28;20054;-61
2022/09/08 00:36:15;;;;;;;5.88;3.20;;;19.40;99.90;;;22.03;56.04;97053.84;5067368;28;20250;-61
2022/09/08 00:38:53;;;;;;;9.57;3.60;;;19.30;99.90;;;21.98;55.87;97058.38;5064974;28;20058;-61
2022/09/08 00:41:22;;;;;;;3.97;3.40;;;19.20;99.90;;;21.97;56.17;97054.84;5065747;28;20428;-62
2022/09/08 00:44:01;;;;;;;4.80;3.30;;;19.10;99.90;;;21.95;55.86;97058.88;5070339;28;20058;-61
2022/09/08 00:46:39;;;;;;;4.93;3.00;;;19.10;99.90;;;21.98;55.76;97056.50;5070459;28;20242;-61
2022/09/08 00:49:21;;;;;;;4.88;3.50;;;19.10;99.90;;;22.05;55.96;97069.88;5052599;28;20052;-61
2022/09/08 00:51:54;;;;;;;3.75;3.13;;;19.10;99.90;;;22.12;56.01;97072.38;5069857;28;20058;-62
2022/09/08 00:54:22;;;;;;;5.22;3.55;;;19.20;99.90;;;22.16;55.94;97081.69;5068937;28;20231;-62
2022/09/08 00:56:50;;;;;;;7.18;3.30;;;19.30;99.90;;;22.20;55.87;97085.53;5069703;28;20052;-62
2022/09/08 00:59:24;;;;;;;3.78;3.33;;;19.30;99.90;;;22.23;55.57;97095.88;5067197;28;20388;-62
2022/09/08 01:01:54;;;;;;;5.50;3.50;;;19.30;99.90;;;22.24;55.89;97086.69;5068222;28;20362;-61
2022/09/08 01:04:23;;;;;;;4.22;3.58;;;19.30;99.90;;;22.15;56.00;97088.16;5070204;28;20258;-62
2022/09/08 01:13:01;;;;;;;5.15;3.40;;;19.20;99.90;;;22.14;56.31;97086.50;5067760;28;20309;-61
2022/09/08 01:15:28;;;;;;;6.70;4.22;;;19.20;99.90;;;22.15;56.47;97086.28;5050950;28;20064;-61
2022/09/08 01:17:57;;;;;;;7.85;3.88;;;19.20;99.90;;;22.16;56.43;97077.09;5068524;28;20052;-62
2022/09/08 01:20:54;;;;;;;4.13;3.33;;;19.20;99.90;;;22.17;56.39;97080.59;5067944;28;20289;-62
2022/09/08 01:24:19;;;;;;;5.63;3.53;;;19.20;99.90;;;22.19;56.06;97082.00;5068587;28;20056;-62
2022/09/08 01:27:12;;;;;;;4.78;3.20;;;19.20;99.90;;;22.25;56.23;97084.81;5066280;28;20068;-61
2022/09/08 01:29:43;;;;;;;3.97;3.50;;;19.20;99.90;;;22.24;56.46;97097.53;5068602;28;20289;-62
2022/09/08 01:32:12;;;;;;;4.18;3.40;;;19.20;99.90;;;22.21;56.54;97101.53;5069044;28;20079;-61
2022/09/08 01:34:43;;;;;;;5.57;3.47;;;19.30;99.90;;;22.21;56.68;97100.72;5067558;28;20346;-61
2022/09/08 01:37:11;;;;;;;3.97;3.55;;;19.30;99.90;;;22.24;56.56;97100.22;5069325;28;20070;-61
2022/09/08 01:39:39;;;;;;;4.55;3.22;;;19.30;99.90;;;22.25;56.64;97092.94;5069452;28;20045;-61
2022/09/08 01:42:07;;;;;;;4.22;3.75;;;19.30;99.90;;;22.26;56.85;97084.56;5069389;28;20360;-61
2022/09/08 01:44:35;;;;;;;5.32;3.53;;;19.40;99.90;;;22.26;56.97;97078.34;5069949;28;20055;-61
2022/09/08 01:47:03;;;;;;;3.80;3.25;;;19.40;99.90;;;22.25;57.04;97069.34;5069901;28;20266;-61
2022/09/08 01:49:31;;;;;;;5.45;3.63;;;19.40;99.90;;;22.26;56.90;97064.78;5050960;28;20423;-62
2022/09/08 01:51:59;;;;;;;5.38;3.40;;;19.40;99.90;;;22.27;56.70;97074.53;5068160;28;20044;-61
2022/09/08 01:54:27;;;;;;;4.93;3.28;;;19.30;99.90;;;22.28;56.55;97070.78;5067971;28;20571;-62
2022/09/08 01:56:56;;;;;;;5.35;3.65;;;19.40;99.90;;;22.26;56.69;97060.16;5067320;28;20338;-62
2022/09/08 01:59:24;;;;;;;3.58;3.20;;;19.40;99.90;;;22.26;56.90;97059.34;5068738;28;20070;-61
2022/09/08 02:01:52;;;;;;;3.83;3.35;;;19.40;99.90;;;22.26;56.76;97051.22;5069033;28;20273;-62
2022/09/08 02:04:20;;;;;;;5.25;3.92;;;19.40;99.90;;;22.28;56.52;97054.50;5069195;28;20056;-62
2022/09/08 02:06:48;;;;;;;4.80;3.25;;;19.40;99.90;;;22.31;56.62;97046.66;5067139;28;20044;-61
2022/09/08 02:09:16;;;;;;;6.07;3.67;;;19.50;99.90;;;22.32;56.46;97045.59;5068791;28;20110;-62
2022/09/08 02:11:44;;;;;;;6.90;3.35;;;19.40;99.90;;;22.33;56.67;97038.28;5067812;28;20055;-61
2022/09/08 02:14:12;;;;;;;4.38;3.70;;;19.40;99.90;;;22.32;56.26;97040.19;5068263;28;20334;-61
2022/09/08 02:16:40;;;;;;;4.60;3.72;;;19.40;99.90;;;22.29;56.74;97027.13;5068957;28;20051;-61
2022/09/08 02:19:08;;;;;;;6.88;4.03;;;19.40;99.90;;;22.28;57.02;97027.38;5049696;28;20269;-62
2022/09/08 02:21:39;;;;;;;6.20;4.10;;;19.40;99.90;;;22.27;56.84;97026.53;5069744;28;20054;-62
2022/09/08 02:24:07;;;;;;;5.03;3.50;;;19.30;99.90;;;22.28;56.63;97019.25;5066370;28;20353;-61
2022/09/08 02:26:37;;;;;;;4.20;3.70;;;19.40;99.90;;;22.28;57.00;97020.06;5067005;28;20052;-61
2022/09/08 02:29:08;;;;;;;4.45;3.40;;;19.40;99.90;;;22.30;56.52;97025.25;5066570;28;20066;-62
2022/09/08 02:31:37;;;;;;;4.22;3.60;;;19.40;99.90;;;22.25;57.26;97012.44;5067631;28;20052;-62
2022/09/08 02:34:05;;;;;;;4.53;3.53;;;19.40;99.90;;;22.23;56.84;97015.34;5067189;28;20044;-61
2022/09/08 02:36:33;;;;;;;4.53;3.72;;;19.40;99.90;;;22.25;56.84;97008.91;5065834;28;20350;-61
2022/09/08 02:39:00;;;;;;;5.07;3.33;;;19.30;99.90;;;22.23;57.07;97006.41;5065745;28;20051;-61
2022/09/08 02:41:29;;;;;;;4.88;3.67;;;19.30;99.90;;;22.21;57.03;97005.84;5066497;28;20251;-61
2022/09/08 02:43:57;;;;;;;4.70;3.92;;;19.40;99.90;;;22.18;56.98;97004.47;5066790;28;20052;-62
2022/09/08 02:46:25;;;;;;;4.63;3.95;;;19.40;99.90;;;22.20;57.31;97010.44;5066563;28;20057;-62
2022/09/08 02:48:53;;;;;;;4.03;3.50;;;19.40;99.90;;;22.19;56.84;97008.78;5067338;28;20273;-61
2022/09/08 02:51:21;;;;;;;3.35;3.00;;;19.40;99.90;;;22.17;57.24;97010.13;5068449;28;20040;-62
2022/09/08 02:53:48;;;;;;;4.78;2.45;;;19.40;99.90;;;22.15;56.91;97012.28;5068090;28;20044;-62
2022/09/08 02:56:16;;;;;;;2.65;2.20;;;19.40;99.90;;;22.14;56.83;97006.03;5066194;28;20254;-62
2022/09/08 02:58:44;;;;;;;3.88;2.40;;;19.30;99.90;;;22.13;56.86;97000.84;5063152;28;20058;-62
2022/09/08 03:01:12;;;;;;;2.72;2.13;;;19.40;99.90;;;22.15;56.64;96998.72;5066838;28;20056;-62
2022/09/08 03:03:39;;;;;;;2.55;2.35;;;19.40;99.90;;;22.14;56.32;96997.91;5067065;28;20064;-62
2022/09/08 03:06:08;;;;;;;2.40;1.90;;;19.30;99.90;;;22.15;56.39;97001.44;5066195;28;20052;-62
2022/09/08 03:08:36;;;;;;;2.65;1.85;;;19.40;99.90;;;22.15;56.42;97009.56;5065137;28;20058;-61
2022/09/08 03:11:04;;;;;;;3.55;1.92;;;19.40;99.90;;;22.15;56.29;97002.25;5067343;28;20048;-62
2022/09/08 03:13:33;;;;;;;2.28;1.73;;;19.40;99.90;;;22.08;56.37;97003.50;5067512;28;20070;-62
2022/09/08 03:16:03;;;;;;;2.95;1.95;;;19.30;99.90;;;22.11;55.93;96995.69;5066718;28;20343;-61
2022/09/08 03:18:31;;;;;;;2.42;1.80;;;19.30;99.90;;;22.14;56.24;97002.47;5066003;28;20056;-62
2022/09/08 03:21:10;;;;;;;2.22;1.90;;;19.40;99.90;;;22.16;56.13;96990.34;5050132;28;20330;-62
2022/09/08 03:23:38;;;;;;;4.15;2.00;;;19.40;99.90;;;22.14;56.00;97000.63;5066300;28;20056;-62
2022/09/08 03:26:13;;;;;;;1.90;1.70;;;19.30;99.90;;;22.09;56.09;96994.31;5067549;28;20149;-61
2022/09/08 03:28:44;;;;;;;2.97;1.85;;;19.30;99.90;;;22.11;55.97;97000.28;5067729;28;20060;-61
2022/09/08 03:31:16;;;;;;;2.05;1.75;;;19.40;99.90;;;22.11;55.98;97001.09;5066379;28;20048;-62
2022/09/08 03:33:45;;;;;;;2.00;1.50;;;19.30;99.90;;;22.13;55.91;96995.44;5067126;28;20040;-61
2022/09/08 03:36:14;;;;;;;3.50;1.75;;;19.30;99.90;;;22.15;55.77;97006.84;5066109;28;20060;-61
2022/09/08 03:38:43;;;;;;;2.42;1.83;;;19.40;99.90;;;22.12;55.80;96994.63;5066502;28;20075;-62
2022/09/08 03:41:15;;;;;;;2.20;1.60;;;19.40;99.90;;;22.12;56.00;96991.06;5066999;28;20516;-62
2022/09/08 03:43:49;;;;;;;3.60;1.73;;;19.30;99.90;;;22.09;55.90;96999.72;5066525;28;20584;-62
2022/09/08 03:46:17;;;;;;;1.77;1.50;;;19.20;99.90;;;22.05;56.20;97002.13;5065273;28;20048;-62
2022/09/08 03:48:45;;;;;;;1.90;1.70;;;19.20;99.90;;;21.91;56.16;97000.84;5065297;28;20060;-62
2022/09/08 03:51:25;;;;;;;2.65;2.05;;;19.10;99.90;;;21.95;56.34;96996.56;5066964;28;20177;-62
2022/09/08 03:54:46;;;;;;;3.13;1.80;;;19.10;99.90;;;21.95;56.31;97004.69;5066414;28;20053;-61
2022/09/08 03:56:48;;;;;;;2.97;1.58;;;19.10;99.90;;;21.94;56.34;97005.75;5064944;28;20052;-61
2022/09/08 03:59:16;;;;;;;3.38;1.80;;;19.10;99.90;;;21.93;56.19;97006.84;5065514;28;20044;-62
2022/09/08 04:01:44;;;;;;;2.58;2.38;;;19.10;99.90;;;21.85;56.39;97005.38;5066841;28;20074;-62
2022/09/08 04:04:12;;;;;;;1.90;1.58;;;19.00;99.90;;;21.81;56.56;97002.34;5066124;28;20044;-61
2022/09/08 04:06:39;;;;;;;1.50;1.38;;;19.00;99.90;;;21.77;56.92;97001.19;5065879;28;20368;-62
2022/09/08 04:09:07;;;;;;;1.83;1.50;;;19.00;99.90;;;21.76;56.53;97010.38;5065429;28;20321;-61
2022/09/08 04:11:35;;;;;;;3.03;1.63;;;18.90;99.90;;;21.77;56.59;97005.75;5066322;28;20044;-62
2022/09/08 04:14:03;;;;;;;2.88;1.50;;;19.00;99.90;;;21.78;57.26;97004.72;5066270;28;20044;-61
2022/09/08 04:16:31;;;;;;;2.15;1.95;;;19.00;99.90;;;21.73;56.95;97013.59;5065716;28;20064;-62
2022/09/08 04:18:58;;;;;;;2.33;1.70;;;18.90;99.90;;;21.70;57.41;97014.06;5064817;28;20049;-61
2022/09/08 04:21:26;;;;;;;4.13;2.45;;;18.90;99.90;;;21.72;56.78;97009.22;5065310;28;20392;-62
2022/09/08 04:23:54;;;;;;;1.88;1.40;;;18.80;99.90;;;21.75;57.39;97006.03;5066970;28;20056;-61
2022/09/08 04:26:22;;;;;;;2.15;1.80;;;18.90;99.90;;;21.75;57.64;97014.16;5065389;28;20044;-61
2022/09/08 04:28:49;;;;;;;2.85;1.80;;;18.90;99.90;;;21.71;58.32;97014.88;5066106;28;20044;-62
2022/09/08 04:31:18;;;;;;;3.10;1.90;;;18.80;99.90;;;21.69;57.64;97025.97;5066987;28;20048;-62
2022/09/08 04:33:47;;;;;;;3.28;1.88;;;18.80;99.90;;;21.65;58.18;97029.44;5064633;28;20052;-61
2022/09/08 04:36:19;;;;;;;2.63;1.85;;;18.70;99.90;;;21.67;58.12;97030.00;5067701;28;20044;-62
2022/09/08 04:38:59;;;;;;;2.25;2.05;;;18.70;99.90;;;21.65;58.41;97024.81;5064546;28;20063;-61
2022/09/08 04:41:28;;;;;;;;;;;18.70;99.90;;;21.70;57.42;97021.38;5066527;28;20048;-61
2022/09/08 04:44:00;;;;;;;4.00;1.90;;;18.60;99.90;;;21.67;58.12;97021.88;5064411;28;19916;-61
2022/09/08 04:46:28;;;;;;;3.35;2.20;;;18.50;99.90;;;21.60;58.40;97024.75;5064935;28;20048;-61
2022/09/08 04:48:56;;;;;;;2.50;1.95;;;18.50;99.90;;;21.54;58.77;97021.16;5065481;28;20040;-61
2022/09/08 04:51:25;;;;;;;3.28;2.20;;;18.50;99.90;;;21.56;58.37;97024.44;5064975;28;20043;-61
2022/09/08 04:53:55;;;;;;;2.53;1.88;;;18.50;99.90;;;21.52;58.65;97019.72;5065831;28;20040;-61
2022/09/08 04:56:25;;;;;;;3.88;2.20;;;18.50;99.90;;;21.52;58.46;97015.16;5065298;28;20055;-61
2022/09/08 04:58:54;;;;;;;2.40;2.00;;;18.50;99.90;;;21.42;58.64;97017.66;5065764;28;20048;-61
2022/09/08 05:01:30;;;;;;;2.63;2.17;;;18.50;99.90;;;21.47;58.62;97028.59;5065541;28;20052;-62
2022/09/08 05:04:01;;;;;;;2.60;2.28;;;18.50;99.90;;;21.43;58.46;97030.97;5065126;28;20059;-61
2022/09/08 05:06:31;;;;;;;2.13;1.85;;;18.50;99.90;;;21.31;59.00;97045.66;5067241;28;20052;-61
2022/09/08 05:09:01;;;;;;;2.58;1.80;;;18.40;99.90;;;21.33;58.85;97038.09;5066127;28;20048;-61
2022/09/08 05:11:33;;;;;;;2.78;1.90;;;18.50;99.90;;;21.21;58.51;97038.16;5065230;28;20372;-61
2022/09/08 05:14:02;;;;;;;4.35;1.60;;;18.50;99.90;;;21.32;58.57;97048.09;5065473;28;20041;-61
2022/09/08 05:16:30;;;;;;;3.60;1.95;;;18.50;99.90;;;21.23;58.05;97052.28;5065202;28;20281;-62
2022/09/08 05:19:02;;;;;;;2.80;1.95;;;18.40;99.90;;;21.23;58.10;97055.81;5064794;28;20057;-62
2022/09/08 05:21:33;;;;;;;3.15;1.73;;;18.40;99.90;;;21.16;57.79;97063.25;5066206;28;20059;-62
2022/09/08 05:24:03;;;;;;;1.67;1.58;;;18.30;99.90;;;21.23;58.08;97068.53;5064189;28;20051;-62
2022/09/08 05:26:32;;;;;;;2.88;1.45;;;18.30;99.90;;;21.24;57.92;97080.97;5065783;28;20365;-62
2022/09/08 05:29:03;;;;;;;5.07;1.85;;;18.30;99.90;;;21.21;58.28;97081.47;5067142;28;20037;-62
2022/09/08 05:31:31;;;;;;;3.10;1.80;;;18.30;99.90;;;21.21;57.99;97084.19;5069272;28;20356;-62
2022/09/08 05:33:59;;;;;;;2.72;1.73;;;18.30;99.90;;;21.19;57.97;97094.41;5067804;28;20051;-62
2022/09/08 05:36:35;;;;;;;3.03;1.80;;;18.20;99.90;;;21.13;58.45;97096.22;5069089;28;20058;-62
2022/09/08 05:39:06;;;;;;;3.17;1.30;;;18.10;99.90;;;21.01;57.31;97093.56;5051951;28;20048;-63
2022/09/08 05:41:34;;;;;;;2.33;1.30;;;18.00;99.90;;;20.95;57.35;97088.28;5068513;28;20563;-63
2022/09/08 05:44:02;;;;;;;1.00;1.00;;;18.00;99.90;;;20.88;56.66;97082.19;5068341;28;20059;-63
2022/09/08 05:46:30;;;;;;;0.95;0.93;;;17.90;99.90;;;20.85;55.90;97094.31;5067121;28;20044;-63
2022/09/08 05:48:59;;;;;;;0.93;0.90;;;17.80;99.90;;;20.76;55.31;97098.44;5068035;28;20266;-63
2022/09/08 05:51:27;;;;;;;0.80;0.80;;;17.80;99.90;;;20.74;54.89;97106.81;5065964;28;20040;-62
2022/09/08 05:53:58;;;;;;;1.02;0.80;;;17.80;99.90;;;20.65;55.19;97116.38;5068658;28;20048;-62
2022/09/08 05:56:26;;;;;;;0.70;0.60;;;17.70;99.90;;;20.53;54.91;97124.47;5067957;28;20055;-62
2022/09/08 05:59:00;;;;;;;1.20;1.10;;;17.50;99.90;;;20.52;55.73;97127.41;5067830;28;20049;-62
2022/09/08 06:01:30;;;;;;;;;;;17.50;99.90;;;20.42;55.61;97136.13;5067822;28;20057;-61
2022/09/08 06:03:59;;;;;;;1.13;1.00;;;17.50;99.90;;;20.47;55.46;97141.63;5067760;28;19916;-62
2022/09/08 06:06:29;;;;;;;1.88;0.90;;;17.50;99.90;;;20.33;56.24;97140.22;5049770;28;20056;-62
2022/09/08 06:08:59;;;;;;;1.48;1.20;;;17.40;99.90;;;20.35;56.08;97136.22;5066841;28;20058;-63
2022/09/08 06:11:30;;;;;;;1.35;1.00;;;17.40;99.90;;;20.37;55.81;97136.81;5050683;28;20069;-62
2022/09/08 06:13:58;;;;;;;1.27;1.13;;;17.40;99.90;;;20.34;55.94;97139.19;5067020;28;20052;-62
2022/09/08 06:16:27;;;;;;;1.35;0.88;;;17.40;99.90;;;20.37;55.75;97130.59;5067687;28;20052;-62
2022/09/08 06:18:58;;;;;;;1.10;0.80;;;17.40;99.90;;;20.43;55.85;97143.16;5067647;28;20364;-61
2022/09/08 06:21:30;;;;;;;1.48;1.00;;;17.50;99.90;;;20.44;55.21;97139.41;5066707;28;20058;-61
2022/09/08 06:24:02;;;;;;;0.70;0.70;;;17.50;99.90;;;20.41;55.53;97134.47;5068258;28;20243;-62
2022/09/08 06:26:33;;;;;;;1.95;0.82;;;17.50;99.90;;;20.41;55.56;97126.34;5068052;28;20052;-61
2022/09/08 06:29:24;;;;;;;2.00;0.80;;;17.40;99.90;;;20.42;55.22;97118.00;5068034;28;20044;-61
2022/09/08 06:32:22;;;;;;;0.82;0.82;;;17.40;99.90;;;20.44;55.01;97128.59;5067612;28;20636;-62
2022/09/08 06:35:06;;;;;;;0.73;0.73;;;17.40;99.90;;;20.44;55.00;97126.72;5022324;28;20057;-61
2022/09/08 06:37:43;;;;;;;2.17;0.70;;;17.50;99.90;;;20.48;54.70;97126.25;5067275;28;20388;-63
2022/09/08 06:40:22;;;;;;;1.98;1.08;;;17.40;99.90;;;20.47;54.43;97130.81;5067849;28;20385;-64
2022/09/08 06:43:14;;;;;;;1.15;0.90;;;17.40;99.90;;;20.46;55.03;97135.41;5067151;28;20044;-64
2022/09/08 06:45:52;;;;;;;0.80;0.80;;;17.50;99.90;;;20.46;55.06;97148.09;5065323;28;20056;-63
2022/09/08 06:48:37;;;;;;;1.52;1.00;;;17.40;99.90;;;20.48;54.64;97126.25;5066656;28;20342;-64
2022/09/08 06:51:44;;;;;;;1.10;0.90;;;17.50;99.90;;;20.45;55.33;97133.78;5068041;28;20056;-64
2022/09/08 06:54:40;;;;;;;2.97;0.93;;;17.50;99.90;;;20.43;55.23;97146.72;5051681;28;20056;-64
2022/09/08 06:57:41;;;;;;;0.70;0.70;;;17.40;99.90;;;20.43;55.65;97145.88;5066385;28;20040;-64
2022/09/08 07:00:48;;;;;;;1.10;1.00;;;17.40;99.90;;;20.43;55.66;97146.72;5066778;28;20059;-64
2022/09/08 07:03:29;;;;;;;1.95;0.88;;;17.40;99.90;;;20.46;55.68;97148.09;5067908;28;20074;-64
2022/09/08 07:06:10;;;;;;;1.98;1.00;;;17.50;99.90;;;20.48;55.69;97142.47;5067956;28;20057;-62
2022/09/08 07:09:19;;;;;;;1.33;0.70;;;17.60;99.90;;;20.52;55.28;97143.63;5065939;28;20046;-62
2022/09/08 07:12:31;;;;;;;0.85;0.80;;;17.70;99.90;;;20.55;55.53;97144.00;5066429;28;20061;-62
2022/09/08 07:15:15;;;;;;;1.08;0.98;;;17.70;99.90;;;20.55;54.89;97144.00;5066669;28;20059;-62
2022/09/08 07:18:13;;;;;;;1.20;1.00;;;17.70;99.90;;;20.66;54.91;97147.75;5066188;28;20048;-62
2022/09/08 07:20:41;;;;;;;1.20;1.05;;;17.80;99.90;;;20.64;54.92;97158.78;5067139;28;20040;-62
2022/09/08 07:23:21;;;;;;;0.98;0.80;;;17.80;99.90;;;20.67;54.71;97156.72;5066593;28;20059;-61
2022/09/08 07:26:52;;;;;;;2.45;0.95;;;17.80;99.90;;;20.71;54.73;97157.88;5071634;28;20053;-61
2022/09/08 07:29:33;;;;;;;0.90;0.90;;;17.80;99.90;;;20.80;54.50;97153.72;5065854;28;20052;-62
2022/09/08 07:32:02;;;;;;;0.95;0.80;;;17.90;99.90;;;20.84;54.51;97163.84;5065778;28;20059;-61
2022/09/08 07:34:39;;;;;;;1.27;0.88;;;18.00;99.90;;;20.84;54.76;97166.53;5067110;28;20350;-62
2022/09/08 07:37:21;;;;;;;1.88;1.10;;;18.00;99.90;;;20.78;54.33;97163.94;5066763;28;20044;-62
2022/09/08 07:40:20;;;;;;;1.52;1.20;;;18.00;99.90;;;20.89;54.20;97175.81;5065959;28;20057;-62
2022/09/08 07:42:55;;;;;;;1.00;0.90;;;18.00;99.90;;;20.97;54.29;97180.84;5066369;28;20052;-62
2022/09/08 07:45:42;;;;;;;3.97;1.60;;;18.10;99.90;;;20.95;54.17;97182.97;5065043;28;20056;-62
2022/09/08 07:49:03;;;;;;;1.33;1.10;;;18.10;99.90;;;21.07;53.70;97188.34;5065322;28;20282;-62
2022/09/08 07:51:52;;;;;;;2.25;1.17;;;18.20;99.90;;;21.15;53.65;97190.69;5065838;28;20056;-62
2022/09/08 07:54:45;;;;;;;0.90;0.90;;;18.30;99.90;;;21.12;53.14;97200.13;5065457;28;20060;-62
2022/09/08 07:57:35;;;;;;;1.10;1.00;;;18.40;99.90;;;20.97;53.27;97189.78;5065611;28;20052;-62
2022/09/08 08:00:11;;;;;;;4.43;1.15;;;18.10;99.90;;;20.90;53.65;97199.94;5067898;28;20279;-62
2022/09/08 08:02:55;;;;;;;2.13;1.20;;;18.10;99.90;;;20.95;53.17;97185.69;5068062;28;20044;-62
2022/09/08 08:05:58;;;;;;;1.33;1.00;;;18.10;99.90;;;20.77;52.76;97202.91;5065717;28;20338;-62
2022/09/08 08:08:54;;;;;;;1.15;1.05;;;18.00;99.90;;;20.52;53.45;97200.41;5065005;28;20052;-62
2022/09/08 08:12:04;;;;;;;2.83;1.30;;;18.00;99.90;;;20.63;53.70;97202.31;5065046;28;20372;-62
2022/09/08 08:14:38;;;;;;;11.68;1.60;;;18.00;99.90;;;20.63;52.95;97202.31;5053668;28;20065;-62
2022/09/08 08:17:37;;;;;;;;;;;18.00;99.90;;;20.40;53.66;97195.00;5065870;28;20058;-62
2022/09/08 08:20:45;;;;;;;1.00;0.90;;;18.00;99.90;;;20.55;53.48;97202.63;5065487;28;19916;-61
2022/09/08 08:23:57;;;;;;;2.28;1.02;;;18.00;99.90;;;20.27;54.70;97199.56;5064928;28;20119;-61
2022/09/08 08:26:44;;;;;;;0.80;0.80;;;18.00;99.90;;;20.45;54.40;97211.34;5063784;28;20388;-62
2022/09/08 08:29:33;;;;;;;1.55;0.95;;;18.10;99.90;;;20.59;54.38;97210.09;5098782;28;20040;-62
2022/09/08 08:32:18;;;;;;;0.95;0.95;;;18.30;99.90;;;20.73;54.44;97216.06;5066458;28;20259;-62
2022/09/08 08:35:37;;;;;;;1.80;1.02;;;18.60;99.90;;;20.89;53.52;97211.00;5073289;28;20048;-61
2022/09/08 08:38:06;;;;;;;1.55;0.90;;;18.70;99.90;;;20.65;53.71;97219.13;5076726;28;20062;-61
2022/09/08 08:40:59;;;;;;;1.15;1.05;;;18.70;98.40;;;20.69;53.60;97217.59;5075484;28;20074;-61
2022/09/08 08:43:55;;;;;;;1.10;0.98;;;18.60;99.20;;;20.99;53.11;97228.25;5076172;28;20041;-61
2022/09/08 08:46:42;;;;;;;0.93;0.93;;;18.70;98.60;;;20.77;52.13;97228.06;5076433;28;20231;-61
2022/09/08 08:49:19;;;;;;;1.05;0.95;;;18.60;95.20;;;20.87;52.24;97226.66;5077663;28;20040;-61
2022/09/08 08:52:22;;;;;;;1.30;1.20;;;18.40;97.30;;;20.71;52.80;97225.50;5077619;28;20040;-61
2022/09/08 08:55:46;;;;;;;1.50;0.85;;;18.50;98.60;;;20.78;52.71;97223.47;5078686;28;20051;-62
2022/09/08 08:58:53;;;;;;;1.83;1.65;;;18.40;97.00;;;20.74;52.85;97222.28;5077183;28;20040;-62
2022/09/08 09:01:55;;;;;;;2.15;1.02;;;18.40;99.90;;;20.79;52.77;97225.94;5074351;28;20238;-61
2022/09/08 09:05:03;;;;;;;1.10;1.00;;;18.40;99.60;;;20.94;52.76;97240.88;5080111;28;20258;-62
2022/09/08 09:08:15;;;;;;;1.42;1.00;;;18.40;99.90;;;21.25;52.75;97239.63;5079334;28;20058;-62
2022/09/08 09:11:11;;;;;;;1.48;1.10;;;18.70;99.90;;;21.20;52.55;97247.63;5058951;28;20175;-62
2022/09/08 09:14:02;;;;;;;1.27;1.10;;;18.90;98.30;;;21.28;52.22;97247.25;5059679;28;20079;-62
2022/09/08 09:17:22;;;;;;;1.35;1.25;;;18.90;96.80;;;21.44;52.31;97243.00;5077353;28;20253;-61
2022/09/08 09:20:23;;;;;;;1.15;0.98;;;19.00;97.30;;;21.35;51.73;97244.44;5081776;28;20037;-61
2022/09/08 09:23:13;;;;;;;1.15;1.00;;;19.20;95.00;;;21.36;51.47;97241.47;5081810;28;20223;-61
2022/09/08 09:25:59;;;;;;;0.80;0.75;;;19.00;95.10;;;20.99;52.58;97240.97;5081684;28;20384;-61
2022/09/08 09:28:45;;;;;;;0.80;0.80;;;18.80;96.30;;;20.96;52.70;97244.97;5079593;28;20380;-61
2022/09/08 09:32:01;;;;;;;1.15;1.02;;;18.60;97.60;;;21.04;51.66;97233.78;5080010;28;20227;-62
2022/09/08 09:34:42;;;;;;;1.42;1.33;;;18.70;95.20;;;20.90;52.20;97243.22;5081180;28;20067;-61
2022/09/08 09:38:02;;;;;;;1.67;1.13;;;18.80;94.00;;;21.11;51.48;97240.94;5094804;28;20052;-61
2022/09/08 09:40:57;;;;;;;2.95;1.02;;;18.80;92.80;;;21.35;51.38;97237.13;5080067;28;20346;-61
2022/09/08 09:43:48;;;;;;;2.92;0.90;;;19.00;92.80;;;21.52;50.32;97228.25;5113660;28;20044;-61
2022/09/08 09:46:22;;;;;;;1.70;1.13;;;19.20;90.10;;;21.71;51.02;97228.88;5081731;28;20056;-62
2022/09/08 09:49:56;;;;;;;0.80;0.80;;;19.40;92.60;;;21.48;50.21;97235.22;5080750;28;20040;-61
2022/09/08 09:52:57;;;;;;;0.77;0.77;;;19.20;87.90;;;21.33;49.62;97243.84;5080908;28;20048;-62
2022/09/08 09:56:28;;;;;;;4.07;0.90;;;19.30;85.90;;;21.41;48.28;97230.75;5080227;28;20074;-61
2022/09/08 09:59:25;;;;;;;1.08;0.90;;;19.30;84.80;;;21.12;49.22;97235.28;5080131;28;20063;-61
2022/09/08 10:02:42;;;;;;;2.22;1.25;;;19.40;80.00;;;21.43;49.82;97225.09;5078956;28;20317;-62
2022/09/08 10:05:41;;;;;;;2.17;1.00;;;19.60;80.50;;;21.14;48.72;97235.06;5077914;28;20354;-61
2022/09/08 10:09:12;;;;;;;1.92;0.80;;;19.50;75.70;;;21.50;49.64;97233.09;5074691;28;20045;-61
2022/09/08 10:12:02;;;;;;;2.45;1.25;;;19.50;78.50;;;21.75;48.74;97227.34;5063602;28;20059;-61
2022/09/08 10:15:19;;;;;;;1.20;1.10;;;19.60;77.70;;;21.87;48.94;97225.41;5062916;28;20053;-60
2022/09/08 10:18:02;;;;;;;1.17;1.08;;;19.80;77.50;;;22.06;48.63;97217.03;5063591;28;20123;-61
2022/09/08 10:20:47;;;;;;;0.98;0.88;;;20.10;76.50;;;22.08;48.19;97225.75;5063801;28;20224;-60
2022/09/08 10:23:55;;;;;;;1.20;1.10;;;20.10;75.00;;;21.92;48.07;97221.94;5093087;28;20238;-61
2022/09/08 10:26:40;;;;;;;2.17;1.10;;;19.90;73.30;;;22.35;47.64;97239.50;5060882;28;20064;-61
2022/09/08 10:29:36;;;;;;;1.95;1.00;;;20.00;74.50;;;21.95;48.40;97237.75;5072101;28;20067;-61
2022/09/08 10:32:25;;;;;;;1.23;1.00;;;19.80;74.70;;;21.82;49.38;97236.13;5054406;28;20049;-61
2022/09/08 10:35:34;;;;;;;1.60;1.10;;;19.60;78.10;;;22.01;49.44;97232.16;5053142;28;20045;-61
2022/09/08 10:38:51;;;;;;;3.03;1.13;;;19.70;78.50;;;21.77;49.11;97236.88;5065069;28;20057;-61
2022/09/08 10:41:52;;;;;;;1.98;0.90;;;19.60;76.30;;;21.68;50.19;97232.09;5050188;28;20352;-61
2022/09/08 10:49:13;;;;;;;1.45;0.90;;;19.60;77.70;;;22.03;48.66;97237.34;5048400;28;20051;-62
2022/09/08 10:52:06;;;;;;;1.90;1.20;;;19.60;74.40;;;21.81;47.69;97238.03;5046263;28;20426;-61
2022/09/08 10:54:54;;;;;;;3.58;1.35;;;19.50;72.00;;;21.92;47.39;97230.91;5047411;28;20083;-62
2022/09/08 10:57:30;;;;;;;2.78;1.10;;;19.50;72.10;;;21.63;47.37;97232.81;5047772;28;20561;-62
2022/09/08 11:00:42;;;;;;;0.82;0.82;;;19.50;70.40;;;21.77;47.48;97236.88;5047162;28;20053;-62
2022/09/08 11:03:35;;;;;;;1.25;0.90;;;19.60;70.30;;;21.85;46.64;97232.97;5047648;28;20045;-61
2022/09/08 11:06:46;;;;;;;1.20;1.10;;;19.60;69.20;;;22.15;46.51;97224.50;5047258;28;20297;-62
2022/09/08 11:09:28;;;;;;;2.13;1.30;;;19.80;69.90;;;21.92;45.31;97208.41;5070484;28;20283;-62
2022/09/08 11:12:33;;;;;;;2.90;1.50;;;20.00;64.80;;;21.98;43.53;97232.66;5046484;28;20055;-62
2022/09/08 11:15:41;;;;;;;1.40;1.10;;;20.20;61.20;;;22.26;44.00;97214.72;5047863;28;20067;-62
2022/09/08 11:18:28;;;;;;;1.77;1.30;;;20.40;61.80;;;22.39;44.58;97229.81;5040688;28;20055;-62
2022/09/08 11:21:02;;;;;;;1.73;1.40;;;20.40;63.30;;;22.50;44.46;97219.94;5077677;28;20049;-62
2022/09/08 11:24:03;;;;;;;1.20;1.10;;;20.60;63.70;;;22.07;44.95;97233.06;5078754;28;20051;-62
2022/09/08 11:26:52;;;;;;;3.13;1.60;;;20.30;63.60;;;22.00;44.83;97229.69;5072411;28;20051;-62